sensor_id;sensor_type;location;lat;lon;timestamp;noise_LAeq;noise_LA_min;noise_LA_max;noise_LA01;noise_LA95
77135;Laerm;48586;50.122;18.972;2023-09-18T00:00:12;49.55;48.00;51.16;;
77135;Laerm;48586;50.122;18.972;2023-09-18T00:03:17;49.61;48.20;51.48;;
77135;Laerm;48586;50.122;18.972;2023-09-18T00:06:22;49.70;48.38;52.30;;
77135;Laerm;48586;50.122;18.972;2023-09-18T00:09:30;49.77;48.34;52.67;;
77135;Laerm;48586;50.122;18.972;2023-09-18T00:12:35;49.59;48.27;51.46;;
77135;Laerm;48586;50.122;18.972;2023-09-18T00:15:40;49.59;48.08;51.26;;
77135;Laerm;48586;50.122;18.972;2023-09-18T00:18:46;49.66;48.20;51.84;;
77135;Laerm;48586;50.122;18.972;2023-09-18T00:21:51;49.63;48.02;52.28;;
77135;Laerm;48586;50.122;18.972;2023-09-18T00:24:58;49.53;48.11;51.17;;
77135;Laerm;48586;50.122;18.972;2023-09-18T00:28:05;49.50;48.04;51.14;;
77135;Laerm;48586;50.122;18.972;2023-09-18T00:31:10;49.53;48.10;51.09;;
77135;Laerm;48586;50.122;18.972;2023-09-18T00:34:15;49.55;48.08;51.54;;
77135;Laerm;48586;50.122;18.972;2023-09-18T00:37:19;50.11;48.23;55.20;;
77135;Laerm;48586;50.122;18.972;2023-09-18T00:40:27;49.53;48.14;51.22;;
77135;Laerm;48586;50.122;18.972;2023-09-18T00:43:32;49.56;48.19;52.43;;
77135;Laerm;48586;50.122;18.972;2023-09-18T00:46:37;49.54;48.28;51.13;;
77135;Laerm;48586;50.122;18.972;2023-09-18T00:49:47;49.51;48.19;51.19;;
77135;Laerm;48586;50.122;18.972;2023-09-18T00:52:54;49.78;47.99;54.11;;
77135;Laerm;48586;50.122;18.972;2023-09-18T00:56:04;49.52;48.12;51.14;;
77135;Laerm;48586;50.122;18.972;2023-09-18T00:59:10;49.69;47.98;55.06;;
77135;Laerm;48586;50.122;18.972;2023-09-18T01:02:16;49.66;48.27;52.52;;
77135;Laerm;48586;50.122;18.972;2023-09-18T01:05:23;50.13;48.13;56.66;;
77135;Laerm;48586;50.122;18.972;2023-09-18T01:08:27;49.58;48.16;51.06;;
77135;Laerm;48586;50.122;18.972;2023-09-18T01:11:48;49.71;48.30;53.05;;
77135;Laerm;48586;50.122;18.972;2023-09-18T01:15:10;50.20;48.29;55.69;;
77135;Laerm;48586;50.122;18.972;2023-09-18T01:18:17;49.89;48.26;55.51;;
77135;Laerm;48586;50.122;18.972;2023-09-18T01:21:22;49.57;48.18;51.04;;
77135;Laerm;48586;50.122;18.972;2023-09-18T01:24:31;50.01;48.29;55.17;;
77135;Laerm;48586;50.122;18.972;2023-09-18T01:27:35;49.65;48.09;51.36;;
77135;Laerm;48586;50.122;18.972;2023-09-18T01:30:40;49.69;48.25;51.74;;
77135;Laerm;48586;50.122;18.972;2023-09-18T01:33:48;49.63;48.33;51.54;;
77135;Laerm;48586;50.122;18.972;2023-09-18T01:36:57;49.79;48.20;53.04;;
77135;Laerm;48586;50.122;18.972;2023-09-18T01:40:08;49.99;48.08;53.91;;
77135;Laerm;48586;50.122;18.972;2023-09-18T01:43:14;49.82;48.05;52.56;;
77135;Laerm;48586;50.122;18.972;2023-09-18T01:46:20;49.63;48.34;51.42;;
77135;Laerm;48586;50.122;18.972;2023-09-18T01:49:30;49.55;48.21;51.37;;
77135;Laerm;48586;50.122;18.972;2023-09-18T01:52:36;51.33;48.12;61.72;;
77135;Laerm;48586;50.122;18.972;2023-09-18T01:55:43;49.93;48.26;54.85;;
77135;Laerm;48586;50.122;18.972;2023-09-18T01:58:50;49.61;48.22;51.24;;
77135;Laerm;48586;50.122;18.972;2023-09-18T02:01:55;49.86;48.26;53.65;;
77135;Laerm;48586;50.122;18.972;2023-09-18T02:05:00;50.19;48.35;54.99;;
77135;Laerm;48586;50.122;18.972;2023-09-18T02:08:05;49.57;48.06;51.38;;
77135;Laerm;48586;50.122;18.972;2023-09-18T02:11:13;49.60;48.29;51.38;;
77135;Laerm;48586;50.122;18.972;2023-09-18T02:14:17;49.62;48.31;51.17;;
77135;Laerm;48586;50.122;18.972;2023-09-18T02:17:23;49.60;48.00;51.30;;
77135;Laerm;48586;50.122;18.972;2023-09-18T02:20:27;49.83;48.31;55.32;;
77135;Laerm;48586;50.122;18.972;2023-09-18T02:23:32;50.14;48.31;54.96;;
77135;Laerm;48586;50.122;18.972;2023-09-18T02:26:41;50.01;48.19;53.39;;
77135;Laerm;48586;50.122;18.972;2023-09-18T02:29:48;49.69;48.31;51.36;;
77135;Laerm;48586;50.122;18.972;2023-09-18T02:32:55;49.90;48.21;53.36;;
77135;Laerm;48586;50.122;18.972;2023-09-18T02:36:00;50.03;48.33;55.95;;
77135;Laerm;48586;50.122;18.972;2023-09-18T02:39:05;49.96;48.38;54.47;;
77135;Laerm;48586;50.122;18.972;2023-09-18T02:42:13;49.89;48.25;52.72;;
77135;Laerm;48586;50.122;18.972;2023-09-18T02:45:18;50.23;48.47;54.72;;
77135;Laerm;48586;50.122;18.972;2023-09-18T02:48:24;49.68;48.15;51.43;;
77135;Laerm;48586;50.122;18.972;2023-09-18T02:51:28;49.71;48.28;51.78;;
77135;Laerm;48586;50.122;18.972;2023-09-18T02:54:34;51.19;48.36;61.89;;
77135;Laerm;48586;50.122;18.972;2023-09-18T02:57:41;50.11;48.17;54.29;;
77135;Laerm;48586;50.122;18.972;2023-09-18T03:00:49;50.34;48.49;57.91;;
77135;Laerm;48586;50.122;18.972;2023-09-18T03:03:55;49.96;48.57;51.95;;
77135;Laerm;48586;50.122;18.972;2023-09-18T03:07:01;50.61;48.50;55.86;;
77135;Laerm;48586;50.122;18.972;2023-09-18T03:10:07;49.88;48.39;54.84;;
77135;Laerm;48586;50.122;18.972;2023-09-18T03:13:18;50.93;48.77;55.11;;
77135;Laerm;48586;50.122;18.972;2023-09-18T03:16:23;51.37;48.69;69.68;;
77135;Laerm;48586;50.122;18.972;2023-09-18T03:19:28;51.73;48.65;57.81;;
77135;Laerm;48586;50.122;18.972;2023-09-18T03:22:33;53.32;48.52;70.25;;
77135;Laerm;48586;50.122;18.972;2023-09-18T03:25:39;51.84;48.27;60.34;;
77135;Laerm;48586;50.122;18.972;2023-09-18T03:28:46;51.08;48.62;55.77;;
77135;Laerm;48586;50.122;18.972;2023-09-18T03:31:51;51.42;48.85;56.58;;
77135;Laerm;48586;50.122;18.972;2023-09-18T03:35:00;51.79;48.67;56.30;;
77135;Laerm;48586;50.122;18.972;2023-09-18T03:38:05;50.90;48.56;55.22;;
77135;Laerm;48586;50.122;18.972;2023-09-18T03:41:10;51.48;48.56;55.20;;
77135;Laerm;48586;50.122;18.972;2023-09-18T03:44:18;51.09;48.77;55.12;;
77135;Laerm;48586;50.122;18.972;2023-09-18T03:47:23;52.17;49.02;65.95;;
77135;Laerm;48586;50.122;18.972;2023-09-18T03:50:28;52.28;48.63;66.01;;
77135;Laerm;48586;50.122;18.972;2023-09-18T03:53:33;51.23;48.50;65.10;;
77135;Laerm;48586;50.122;18.972;2023-09-18T03:56:39;50.57;48.36;55.29;;
77135;Laerm;48586;50.122;18.972;2023-09-18T03:59:47;51.33;48.68;60.30;;
77135;Laerm;48586;50.122;18.972;2023-09-18T04:02:53;50.99;48.64;56.72;;
77135;Laerm;48586;50.122;18.972;2023-09-18T04:05:58;51.77;48.41;61.14;;
77135;Laerm;48586;50.122;18.972;2023-09-18T04:09:03;51.65;48.92;58.61;;
77135;Laerm;48586;50.122;18.972;2023-09-18T04:12:08;50.75;48.77;54.31;;
77135;Laerm;48586;50.122;18.972;2023-09-18T04:15:17;51.24;48.79;55.83;;
77135;Laerm;48586;50.122;18.972;2023-09-18T04:18:22;51.06;48.73;58.34;;
77135;Laerm;48586;50.122;18.972;2023-09-18T04:21:30;52.19;48.92;61.10;;
77135;Laerm;48586;50.122;18.972;2023-09-18T04:24:35;52.44;48.99;56.18;;
77135;Laerm;48586;50.122;18.972;2023-09-18T04:27:40;51.70;48.85;56.75;;
77135;Laerm;48586;50.122;18.972;2023-09-18T04:30:48;50.89;48.72;55.58;;
77135;Laerm;48586;50.122;18.972;2023-09-18T04:33:55;51.27;48.79;62.03;;
77135;Laerm;48586;50.122;18.972;2023-09-18T04:37:00;52.18;49.12;57.01;;
77135;Laerm;48586;50.122;18.972;2023-09-18T04:40:08;54.13;49.38;77.51;;
77135;Laerm;48586;50.122;18.972;2023-09-18T04:43:14;52.63;49.33;57.21;;
77135;Laerm;48586;50.122;18.972;2023-09-18T04:46:23;52.66;49.24;60.26;;
77135;Laerm;48586;50.122;18.972;2023-09-18T04:49:29;52.38;48.64;57.13;;
77135;Laerm;48586;50.122;18.972;2023-09-18T04:52:35;52.28;49.19;61.55;;
77135;Laerm;48586;50.122;18.972;2023-09-18T04:55:42;53.37;49.24;57.32;;
77135;Laerm;48586;50.122;18.972;2023-09-18T04:58:48;52.37;48.96;57.39;;
77135;Laerm;48586;50.122;18.972;2023-09-18T05:01:55;53.03;49.55;57.04;;
77135;Laerm;48586;50.122;18.972;2023-09-18T05:05:01;51.26;48.85;55.52;;
77135;Laerm;48586;50.122;18.972;2023-09-18T05:08:07;53.02;49.19;60.49;;
77135;Laerm;48586;50.122;18.972;2023-09-18T05:11:13;51.89;48.92;56.97;;
77135;Laerm;48586;50.122;18.972;2023-09-18T05:14:18;51.84;49.18;56.23;;
77135;Laerm;48586;50.122;18.972;2023-09-18T05:17:41;52.07;48.98;69.90;;
77135;Laerm;48586;50.122;18.972;2023-09-18T05:20:48;51.80;48.86;68.51;;
77135;Laerm;48586;50.122;18.972;2023-09-18T05:23:53;52.01;48.72;56.35;;
77135;Laerm;48586;50.122;18.972;2023-09-18T05:26:57;52.55;49.39;56.70;;
77135;Laerm;48586;50.122;18.972;2023-09-18T05:30:04;52.17;49.16;57.14;;
77135;Laerm;48586;50.122;18.972;2023-09-18T05:33:12;52.99;49.43;57.28;;
77135;Laerm;48586;50.122;18.972;2023-09-18T05:36:17;52.36;48.72;58.65;;
77135;Laerm;48586;50.122;18.972;2023-09-18T05:39:22;52.26;48.63;58.09;;
77135;Laerm;48586;50.122;18.972;2023-09-18T05:42:27;51.87;48.76;63.18;;
77135;Laerm;48586;50.122;18.972;2023-09-18T05:45:33;63.32;49.16;82.52;;
77135;Laerm;48586;50.122;18.972;2023-09-18T05:48:41;66.50;48.82;83.08;;
77135;Laerm;48586;50.122;18.972;2023-09-18T05:51:47;53.49;48.42;66.68;;
77135;Laerm;48586;50.122;18.972;2023-09-18T05:54:53;58.32;49.42;63.74;;
77135;Laerm;48586;50.122;18.972;2023-09-18T05:57:58;61.02;50.84;65.42;;
77135;Laerm;48586;50.122;18.972;2023-09-18T06:01:06;59.81;48.98;65.34;;
77135;Laerm;48586;50.122;18.972;2023-09-18T06:04:14;51.57;48.76;60.81;;
77135;Laerm;48586;50.122;18.972;2023-09-18T06:07:19;52.10;48.45;58.63;;
77135;Laerm;48586;50.122;18.972;2023-09-18T06:10:25;53.82;48.63;66.52;;
77135;Laerm;48586;50.122;18.972;2023-09-18T06:13:31;52.38;48.53;60.19;;
77135;Laerm;48586;50.122;18.972;2023-09-18T06:16:35;51.77;48.75;56.74;;
77135;Laerm;48586;50.122;18.972;2023-09-18T06:19:45;52.15;48.38;58.10;;
77135;Laerm;48586;50.122;18.972;2023-09-18T06:22:49;51.90;48.49;57.46;;
77135;Laerm;48586;50.122;18.972;2023-09-18T06:25:57;51.60;48.13;55.56;;
77135;Laerm;48586;50.122;18.972;2023-09-18T06:29:02;51.35;48.43;64.43;;
77135;Laerm;48586;50.122;18.972;2023-09-18T06:32:07;52.11;48.37;58.56;;
77135;Laerm;48586;50.122;18.972;2023-09-18T06:35:17;51.14;47.84;59.79;;
77135;Laerm;48586;50.122;18.972;2023-09-18T06:38:22;52.24;48.56;61.53;;
77135;Laerm;48586;50.122;18.972;2023-09-18T06:41:27;51.38;48.52;57.50;;
77135;Laerm;48586;50.122;18.972;2023-09-18T06:44:34;52.58;48.81;60.75;;
77135;Laerm;48586;50.122;18.972;2023-09-18T06:47:39;52.63;48.39;61.96;;
77135;Laerm;48586;50.122;18.972;2023-09-18T06:50:48;52.12;48.24;58.74;;
77135;Laerm;48586;50.122;18.972;2023-09-18T06:53:53;51.43;48.45;56.35;;
77135;Laerm;48586;50.122;18.972;2023-09-18T06:57:00;52.05;47.93;58.81;;
77135;Laerm;48586;50.122;18.972;2023-09-18T07:00:07;51.27;48.32;55.80;;
77135;Laerm;48586;50.122;18.972;2023-09-18T07:03:13;52.42;48.35;59.27;;
77135;Laerm;48586;50.122;18.972;2023-09-18T07:06:22;51.10;48.38;55.66;;
77135;Laerm;48586;50.122;18.972;2023-09-18T07:09:28;51.30;48.45;61.16;;
77135;Laerm;48586;50.122;18.972;2023-09-18T07:12:33;50.98;47.63;60.47;;
77135;Laerm;48586;50.122;18.972;2023-09-18T07:15:39;51.32;48.06;60.58;;
77135;Laerm;48586;50.122;18.972;2023-09-18T07:18:46;50.62;47.96;60.25;;
77135;Laerm;48586;50.122;18.972;2023-09-18T07:21:55;51.63;48.36;59.17;;
77135;Laerm;48586;50.122;18.972;2023-09-18T07:25:05;51.74;47.97;65.93;;
77135;Laerm;48586;50.122;18.972;2023-09-18T07:28:13;51.69;48.22;59.90;;
77135;Laerm;48586;50.122;18.972;2023-09-18T07:31:19;51.28;47.84;61.71;;
77135;Laerm;48586;50.122;18.972;2023-09-18T07:34:26;51.79;48.02;72.69;;
77135;Laerm;48586;50.122;18.972;2023-09-18T07:37:34;51.28;47.84;59.37;;
77135;Laerm;48586;50.122;18.972;2023-09-18T07:40:41;52.59;48.72;58.66;;
77135;Laerm;48586;50.122;18.972;2023-09-18T07:43:46;51.69;48.05;62.30;;
77135;Laerm;48586;50.122;18.972;2023-09-18T07:46:54;51.91;47.50;59.80;;
77135;Laerm;48586;50.122;18.972;2023-09-18T07:50:00;51.81;47.71;65.70;;
77135;Laerm;48586;50.122;18.972;2023-09-18T07:53:08;50.98;47.75;55.66;;
77135;Laerm;48586;50.122;18.972;2023-09-18T07:56:13;51.40;47.63;59.87;;
77135;Laerm;48586;50.122;18.972;2023-09-18T07:59:19;49.95;47.16;57.36;;
77135;Laerm;48586;50.122;18.972;2023-09-18T08:02:26;51.22;47.52;55.63;;
77135;Laerm;48586;50.122;18.972;2023-09-18T08:05:35;50.47;47.52;57.33;;
77135;Laerm;48586;50.122;18.972;2023-09-18T08:08:42;51.32;47.47;58.11;;
77135;Laerm;48586;50.122;18.972;2023-09-18T08:11:49;51.01;47.44;62.05;;
77135;Laerm;48586;50.122;18.972;2023-09-18T08:14:56;52.46;47.23;59.95;;
77135;Laerm;48586;50.122;18.972;2023-09-18T08:18:03;50.04;47.42;57.01;;
77135;Laerm;48586;50.122;18.972;2023-09-18T08:21:09;50.75;47.31;60.63;;
77135;Laerm;48586;50.122;18.972;2023-09-18T08:24:19;51.51;47.91;58.52;;
77135;Laerm;48586;50.122;18.972;2023-09-18T08:27:25;51.44;47.89;60.32;;
77135;Laerm;48586;50.122;18.972;2023-09-18T08:30:32;51.18;47.64;61.12;;
77135;Laerm;48586;50.122;18.972;2023-09-18T08:33:40;51.04;47.65;58.97;;
77135;Laerm;48586;50.122;18.972;2023-09-18T08:36:46;51.60;48.13;69.72;;
77135;Laerm;48586;50.122;18.972;2023-09-18T08:39:54;50.45;47.55;59.58;;
77135;Laerm;48586;50.122;18.972;2023-09-18T08:43:02;51.11;47.48;59.90;;
77135;Laerm;48586;50.122;18.972;2023-09-18T08:46:13;51.84;47.92;68.39;;
77135;Laerm;48586;50.122;18.972;2023-09-18T08:49:22;51.52;48.27;56.98;;
77135;Laerm;48586;50.122;18.972;2023-09-18T08:52:29;51.58;48.45;58.32;;
77135;Laerm;48586;50.122;18.972;2023-09-18T08:55:39;51.14;48.08;62.16;;
77135;Laerm;48586;50.122;18.972;2023-09-18T08:58:47;50.41;47.43;55.85;;
77135;Laerm;48586;50.122;18.972;2023-09-18T09:01:53;52.27;47.58;71.10;;
77135;Laerm;48586;50.122;18.972;2023-09-18T09:04:59;51.06;47.86;58.09;;
77135;Laerm;48586;50.122;18.972;2023-09-18T09:08:06;52.11;47.96;60.55;;
77135;Laerm;48586;50.122;18.972;2023-09-18T09:11:15;51.16;47.33;71.73;;
77135;Laerm;48586;50.122;18.972;2023-09-18T09:14:22;51.07;47.82;59.75;;
77135;Laerm;48586;50.122;18.972;2023-09-18T09:17:29;51.19;47.58;58.76;;
77135;Laerm;48586;50.122;18.972;2023-09-18T09:20:36;52.02;47.71;61.40;;
77135;Laerm;48586;50.122;18.972;2023-09-18T09:23:50;51.45;48.49;60.24;;
77135;Laerm;48586;50.122;18.972;2023-09-18T09:27:02;51.07;47.63;59.28;;
77135;Laerm;48586;50.122;18.972;2023-09-18T09:30:08;50.87;47.29;57.12;;
77135;Laerm;48586;50.122;18.972;2023-09-18T09:33:15;51.59;48.00;76.91;;
77135;Laerm;48586;50.122;18.972;2023-09-18T09:36:20;51.81;47.89;57.16;;
77135;Laerm;48586;50.122;18.972;2023-09-18T09:39:26;51.88;47.73;63.24;;
77135;Laerm;48586;50.122;18.972;2023-09-18T09:42:39;51.77;47.55;57.72;;
77135;Laerm;48586;50.122;18.972;2023-09-18T09:46:13;51.35;47.88;60.29;;
77135;Laerm;48586;50.122;18.972;2023-09-18T09:49:20;52.55;47.68;59.47;;
77135;Laerm;48586;50.122;18.972;2023-09-18T09:52:33;51.16;47.77;65.99;;
77135;Laerm;48586;50.122;18.972;2023-09-18T09:55:41;51.70;47.57;61.89;;
77135;Laerm;48586;50.122;18.972;2023-09-18T09:59:01;52.46;47.57;64.94;;
77135;Laerm;48586;50.122;18.972;2023-09-18T10:02:11;68.39;47.94;82.06;;
77135;Laerm;48586;50.122;18.972;2023-09-18T10:05:30;51.70;47.51;58.72;;
77135;Laerm;48586;50.122;18.972;2023-09-18T10:08:39;50.90;47.58;56.13;;
77135;Laerm;48586;50.122;18.972;2023-09-18T10:11:51;51.40;47.88;61.28;;
77135;Laerm;48586;50.122;18.972;2023-09-18T10:15:03;51.16;47.72;66.56;;
77135;Laerm;48586;50.122;18.972;2023-09-18T10:18:25;51.93;47.56;58.98;;
77135;Laerm;48586;50.122;18.972;2023-09-18T10:21:41;50.20;47.38;55.24;;
77135;Laerm;48586;50.122;18.972;2023-09-18T10:25:06;51.02;47.58;61.40;;
77135;Laerm;48586;50.122;18.972;2023-09-18T10:28:17;51.13;47.67;56.69;;
77135;Laerm;48586;50.122;18.972;2023-09-18T10:31:28;52.09;47.40;60.16;;
77135;Laerm;48586;50.122;18.972;2023-09-18T10:34:39;51.97;48.15;58.18;;
77135;Laerm;48586;50.122;18.972;2023-09-18T10:37:49;51.76;47.48;59.24;;
77135;Laerm;48586;50.122;18.972;2023-09-18T10:40:59;51.15;47.35;63.33;;
77135;Laerm;48586;50.122;18.972;2023-09-18T10:44:09;51.88;47.73;59.61;;
77135;Laerm;48586;50.122;18.972;2023-09-18T10:47:20;52.28;47.47;61.82;;
77135;Laerm;48586;50.122;18.972;2023-09-18T10:50:29;52.13;48.09;76.27;;
77135;Laerm;48586;50.122;18.972;2023-09-18T10:53:35;51.37;47.98;59.74;;
77135;Laerm;48586;50.122;18.972;2023-09-18T10:56:43;64.14;47.97;85.06;;
77135;Laerm;48586;50.122;18.972;2023-09-18T10:59:49;51.75;47.58;60.97;;
77135;Laerm;48586;50.122;18.972;2023-09-18T11:03:16;51.86;48.29;61.31;;
77135;Laerm;48586;50.122;18.972;2023-09-18T11:06:22;51.83;48.12;61.86;;
77135;Laerm;48586;50.122;18.972;2023-09-18T11:09:32;52.79;47.75;66.70;;
77135;Laerm;48586;50.122;18.972;2023-09-18T11:12:45;52.94;48.31;63.29;;
77135;Laerm;48586;50.122;18.972;2023-09-18T11:15:51;52.75;47.81;68.99;;
77135;Laerm;48586;50.122;18.972;2023-09-18T11:19:10;55.33;47.92;73.00;;
77135;Laerm;48586;50.122;18.972;2023-09-18T11:22:16;53.46;47.75;60.67;;
77135;Laerm;48586;50.122;18.972;2023-09-18T11:25:34;53.13;47.67;65.45;;
77135;Laerm;48586;50.122;18.972;2023-09-18T11:28:40;69.53;48.58;104.40;;
77135;Laerm;48586;50.122;18.972;2023-09-18T11:31:49;52.74;48.42;59.68;;
77135;Laerm;48586;50.122;18.972;2023-09-18T11:35:09;53.42;48.53;67.13;;
77135;Laerm;48586;50.122;18.972;2023-09-18T11:38:15;53.57;48.13;63.53;;
77135;Laerm;48586;50.122;18.972;2023-09-18T11:41:24;52.61;48.58;64.38;;
77135;Laerm;48586;50.122;18.972;2023-09-18T11:44:33;52.55;48.08;66.62;;
77135;Laerm;48586;50.122;18.972;2023-09-18T11:47:43;52.41;48.10;62.57;;
77135;Laerm;48586;50.122;18.972;2023-09-18T11:50:51;51.76;48.39;64.54;;
77135;Laerm;48586;50.122;18.972;2023-09-18T11:53:59;52.48;48.20;66.78;;
77135;Laerm;48586;50.122;18.972;2023-09-18T11:57:05;53.66;48.29;68.79;;
77135;Laerm;48586;50.122;18.972;2023-09-18T12:00:19;52.85;47.78;64.79;;
77135;Laerm;48586;50.122;18.972;2023-09-18T12:03:29;51.46;47.77;72.24;;
77135;Laerm;48586;50.122;18.972;2023-09-18T12:06:40;52.76;47.85;70.13;;
77135;Laerm;48586;50.122;18.972;2023-09-18T12:09:46;52.74;47.58;63.69;;
77135;Laerm;48586;50.122;18.972;2023-09-18T12:12:51;53.65;48.24;75.35;;
77135;Laerm;48586;50.122;18.972;2023-09-18T12:15:57;52.85;47.80;65.61;;
77135;Laerm;48586;50.122;18.972;2023-09-18T12:19:04;53.05;47.88;68.24;;
77135;Laerm;48586;50.122;18.972;2023-09-18T12:22:12;52.68;48.37;59.06;;
77135;Laerm;48586;50.122;18.972;2023-09-18T12:25:24;52.70;47.95;65.44;;
77135;Laerm;48586;50.122;18.972;2023-09-18T12:28:45;52.26;48.11;59.03;;
77135;Laerm;48586;50.122;18.972;2023-09-18T12:31:50;53.25;48.96;67.42;;
77135;Laerm;48586;50.122;18.972;2023-09-18T12:34:56;53.04;48.34;68.77;;
77135;Laerm;48586;50.122;18.972;2023-09-18T12:38:15;52.59;48.15;65.23;;
77135;Laerm;48586;50.122;18.972;2023-09-18T12:41:21;53.70;48.05;66.53;;
77135;Laerm;48586;50.122;18.972;2023-09-18T12:44:27;53.16;48.75;64.47;;
77135;Laerm;48586;50.122;18.972;2023-09-18T12:47:32;53.57;48.39;71.85;;
77135;Laerm;48586;50.122;18.972;2023-09-18T12:50:41;52.08;48.62;61.40;;
77135;Laerm;48586;50.122;18.972;2023-09-18T12:53:59;53.28;48.72;71.58;;
77135;Laerm;48586;50.122;18.972;2023-09-18T12:57:10;52.73;47.98;64.74;;
77135;Laerm;48586;50.122;18.972;2023-09-18T13:00:17;52.02;47.77;57.96;;
77135;Laerm;48586;50.122;18.972;2023-09-18T13:03:26;53.18;49.14;70.54;;
77135;Laerm;48586;50.122;18.972;2023-09-18T13:06:31;52.20;47.80;60.82;;
77135;Laerm;48586;50.122;18.972;2023-09-18T13:09:39;52.92;47.63;59.36;;
77135;Laerm;48586;50.122;18.972;2023-09-18T13:12:47;52.91;48.00;67.44;;
77135;Laerm;48586;50.122;18.972;2023-09-18T13:15:58;52.99;47.76;61.13;;
77135;Laerm;48586;50.122;18.972;2023-09-18T13:19:05;53.04;48.10;64.59;;
77135;Laerm;48586;50.122;18.972;2023-09-18T13:22:11;53.34;47.91;62.68;;
77135;Laerm;48586;50.122;18.972;2023-09-18T13:25:31;51.94;47.65;59.78;;
77135;Laerm;48586;50.122;18.972;2023-09-18T13:28:36;55.97;48.48;73.63;;
77135;Laerm;48586;50.122;18.972;2023-09-18T13:31:42;53.65;48.45;67.30;;
77135;Laerm;48586;50.122;18.972;2023-09-18T13:34:47;53.40;48.66;63.92;;
77135;Laerm;48586;50.122;18.972;2023-09-18T13:37:52;55.60;49.25;70.70;;
77135;Laerm;48586;50.122;18.972;2023-09-18T13:41:00;52.53;47.93;71.96;;
77135;Laerm;48586;50.122;18.972;2023-09-18T13:44:06;53.20;48.37;59.33;;
77135;Laerm;48586;50.122;18.972;2023-09-18T13:47:12;52.88;48.18;59.20;;
77135;Laerm;48586;50.122;18.972;2023-09-18T13:50:17;52.68;47.83;64.84;;
77135;Laerm;48586;50.122;18.972;2023-09-18T13:53:22;53.17;47.73;69.53;;
77135;Laerm;48586;50.122;18.972;2023-09-18T13:56:30;52.21;47.70;60.62;;
77135;Laerm;48586;50.122;18.972;2023-09-18T13:59:35;52.54;48.09;60.77;;
77135;Laerm;48586;50.122;18.972;2023-09-18T14:02:42;54.36;48.28;70.90;;
77135;Laerm;48586;50.122;18.972;2023-09-18T14:05:47;52.61;47.58;61.21;;
77135;Laerm;48586;50.122;18.972;2023-09-18T14:08:52;51.78;48.26;62.77;;
77135;Laerm;48586;50.122;18.972;2023-09-18T14:12:00;52.84;48.49;62.22;;
77135;Laerm;48586;50.122;18.972;2023-09-18T14:15:07;53.31;48.64;63.05;;
77135;Laerm;48586;50.122;18.972;2023-09-18T14:18:13;54.36;48.74;69.24;;
77135;Laerm;48586;50.122;18.972;2023-09-18T14:21:18;55.77;49.65;76.46;;
77135;Laerm;48586;50.122;18.972;2023-09-18T14:24:23;53.66;48.71;60.27;;
77135;Laerm;48586;50.122;18.972;2023-09-18T14:27:31;52.91;48.50;63.10;;
77135;Laerm;48586;50.122;18.972;2023-09-18T14:30:37;52.98;48.46;62.20;;
77135;Laerm;48586;50.122;18.972;2023-09-18T14:33:41;52.59;47.96;58.56;;
77135;Laerm;48586;50.122;18.972;2023-09-18T14:36:46;52.79;48.40;60.94;;
77135;Laerm;48586;50.122;18.972;2023-09-18T14:39:51;52.72;48.04;57.58;;
77135;Laerm;48586;50.122;18.972;2023-09-18T14:42:59;53.47;48.55;68.54;;
77135;Laerm;48586;50.122;18.972;2023-09-18T14:46:03;52.76;48.58;57.63;;
77135;Laerm;48586;50.122;18.972;2023-09-18T14:49:09;53.83;49.09;61.78;;
77135;Laerm;48586;50.122;18.972;2023-09-18T14:52:14;54.12;48.38;71.15;;
77135;Laerm;48586;50.122;18.972;2023-09-18T14:55:36;53.39;49.36;66.38;;
77135;Laerm;48586;50.122;18.972;2023-09-18T14:58:44;52.91;48.62;60.62;;
77135;Laerm;48586;50.122;18.972;2023-09-18T15:01:49;52.34;48.08;61.45;;
77135;Laerm;48586;50.122;18.972;2023-09-18T15:04:54;53.46;49.67;63.39;;
77135;Laerm;48586;50.122;18.972;2023-09-18T15:08:00;52.61;48.44;62.87;;
77135;Laerm;48586;50.122;18.972;2023-09-18T15:11:04;51.92;47.99;56.92;;
77135;Laerm;48586;50.122;18.972;2023-09-18T15:14:12;52.15;47.58;58.66;;
77135;Laerm;48586;50.122;18.972;2023-09-18T15:17:17;53.48;48.62;61.73;;
77135;Laerm;48586;50.122;18.972;2023-09-18T15:20:22;51.65;48.18;66.32;;
77135;Laerm;48586;50.122;18.972;2023-09-18T15:23:27;52.31;48.63;58.68;;
77135;Laerm;48586;50.122;18.972;2023-09-18T15:26:33;51.65;47.87;60.57;;
77135;Laerm;48586;50.122;18.972;2023-09-18T15:29:40;52.04;48.33;61.92;;
77135;Laerm;48586;50.122;18.972;2023-09-18T15:32:51;52.74;48.70;72.49;;
77135;Laerm;48586;50.122;18.972;2023-09-18T15:35:55;53.93;48.85;69.44;;
77135;Laerm;48586;50.122;18.972;2023-09-18T15:39:01;52.21;48.03;60.07;;
77135;Laerm;48586;50.122;18.972;2023-09-18T15:42:05;52.31;48.74;59.65;;
77135;Laerm;48586;50.122;18.972;2023-09-18T15:45:13;53.68;48.52;76.74;;
77135;Laerm;48586;50.122;18.972;2023-09-18T15:48:18;52.03;48.44;61.50;;
77135;Laerm;48586;50.122;18.972;2023-09-18T15:51:23;52.03;47.96;59.06;;
77135;Laerm;48586;50.122;18.972;2023-09-18T15:54:29;51.53;48.13;57.75;;
77135;Laerm;48586;50.122;18.972;2023-09-18T15:57:36;52.08;48.37;61.88;;
77135;Laerm;48586;50.122;18.972;2023-09-18T16:00:46;53.19;48.54;60.92;;
77135;Laerm;48586;50.122;18.972;2023-09-18T16:03:52;51.64;48.00;62.01;;
77135;Laerm;48586;50.122;18.972;2023-09-18T16:06:58;52.14;49.26;58.39;;
77135;Laerm;48586;50.122;18.972;2023-09-18T16:10:05;52.36;48.01;62.18;;
77135;Laerm;48586;50.122;18.972;2023-09-18T16:13:11;51.89;49.26;57.52;;
77135;Laerm;48586;50.122;18.972;2023-09-18T16:16:19;68.89;48.44;82.48;;
77135;Laerm;48586;50.122;18.972;2023-09-18T16:19:24;62.34;48.50;81.59;;
77135;Laerm;48586;50.122;18.972;2023-09-18T16:22:30;52.05;48.42;64.75;;
77135;Laerm;48586;50.122;18.972;2023-09-18T16:25:34;51.65;48.00;64.04;;
77135;Laerm;48586;50.122;18.972;2023-09-18T16:28:40;51.97;48.06;59.60;;
77135;Laerm;48586;50.122;18.972;2023-09-18T16:31:47;52.12;48.55;56.52;;
77135;Laerm;48586;50.122;18.972;2023-09-18T16:34:53;52.09;47.99;65.48;;
77135;Laerm;48586;50.122;18.972;2023-09-18T16:37:59;52.89;48.70;64.88;;
77135;Laerm;48586;50.122;18.972;2023-09-18T16:41:05;54.20;48.35;68.10;;
77135;Laerm;48586;50.122;18.972;2023-09-18T16:44:09;53.20;47.99;62.01;;
77135;Laerm;48586;50.122;18.972;2023-09-18T16:47:17;55.15;47.98;75.30;;
77135;Laerm;48586;50.122;18.972;2023-09-18T16:50:25;52.84;48.07;68.07;;
77135;Laerm;48586;50.122;18.972;2023-09-18T16:53:31;52.89;48.82;68.10;;
77135;Laerm;48586;50.122;18.972;2023-09-18T16:56:35;52.22;48.62;63.21;;
77135;Laerm;48586;50.122;18.972;2023-09-18T16:59:41;51.52;47.76;61.63;;
77135;Laerm;48586;50.122;18.972;2023-09-18T17:02:50;54.69;48.12;73.05;;
77135;Laerm;48586;50.122;18.972;2023-09-18T17:05:56;56.32;49.10;79.14;;
77135;Laerm;48586;50.122;18.972;2023-09-18T17:09:02;54.90;48.90;81.04;;
77135;Laerm;48586;50.122;18.972;2023-09-18T17:12:08;52.94;49.08;71.27;;